Latest Weather Observations for Murganella Airstrip

IDD60801

Issued at 8:35 pm CST Monday 20 October 2014 (issued every 30 minutes, with the page automatically refreshed every 10 minutes)

About weather observations | Map of weather stations | Latest weather observations for NT | Other Formats
Station Details ID: 014309 Name: MURGANELLA AIRSTRIP Lat: -11.55 Lon: 132.93 Height: 9.5 m
Data from the previous 72 hours. | See also: Recent months for locations in Northern Territory
Date/Time
CST
Temp
°C
App
Temp
°C
Dew
Point
Rel
Hum
%
Delta-T
°C
Wind Press
QNH
hPa
Press
MSL
hPa
Rain
since 9 am
mm
Dir
 
Spd
km/h
Gust
km/h
Spd
kts
Gust
kts
20/08:30pm 25.0 29.8 22.1 84 1.9 NE 0 0 0 0 1012.6 1012.5 0.0
20/08:00pm 25.7 30.4 22.6 83 2.1 NE 2 4 1 2 1012.3 1012.2 0.0
20/07:30pm 26.2 31.5 23.1 83 2.1 CALM 0 4 0 2 1011.9 1011.8 0.0
20/07:00pm 26.6 30.8 23.1 81 2.4 NNE 6 9 3 5 1011.5 1011.4 0.0
20/06:30pm 27.0 29.6 22.6 77 3.0 NE 13 24 7 13 1011.1 1011.0 0.0
20/06:00pm 27.6 30.5 22.5 74 3.5 NE 11 22 6 12 1010.8 1010.7 0.0
20/05:30pm 28.2 30.5 22.0 69 4.2 NE 13 24 7 13 1010.6 1010.5 0.0
20/05:00pm 28.6 29.4 21.4 65 4.8 NNE 19 28 10 15 1010.3 1010.2 0.0
20/04:30pm 29.9 31.3 21.0 59 5.9 NE 15 35 8 19 1010.3 1010.2 0.0
20/04:00pm 30.2 30.5 19.6 53 6.9 NE 17 33 9 18 1010.3 1010.2 0.0
20/03:30pm 31.0 31.0 19.0 48 7.8 ENE 17 32 9 17 1010.5 1010.4 0.0
20/03:00pm 31.1 31.2 19.1 48 7.8 ENE 17 33 9 18 1010.9 1010.8 0.0
20/02:30pm 31.4 30.9 18.7 46 8.2 ENE 19 28 10 15 1011.2 1011.1 0.0
20/02:00pm 32.4 32.4 18.9 44 8.8 NE 17 30 9 16 1011.6 1011.5 0.0
20/01:30pm 32.4 31.1 15.8 36 10.4 ENE 17 30 9 16 1012.0 1011.9 0.0
20/01:00pm 32.5 31.1 15.5 36 10.6 ENE 17 32 9 17 1012.5 1012.4 0.0
20/12:30pm 32.7 32.5 17.7 40 9.6 E 15 24 8 13 1013.1 1013.0 0.0
20/12:00pm 31.6 30.4 17.5 43 9.0 NE 20 30 11 16 1013.7 1013.6 0.0
20/11:30am 31.1 29.9 17.0 42 8.9 E 19 32 10 17 1014.3 1014.2 0.0
20/11:00am 31.2 31.6 18.2 46 8.4 E 13 20 7 11 1014.5 1014.4 0.0
20/10:30am 30.8 30.5 18.2 47 8.1 E 17 30 9 16 1014.7 1014.6 0.0
20/10:00am 30.3 31.7 21.1 58 6.1 E 15 28 8 15 1015.0 1014.9 0.0
20/09:30am 28.6 30.8 21.9 67 4.5 ENE 13 22 7 12 1014.9 1014.8 0.0
20/09:00am 27.5 29.9 21.5 70 4.0 E 11 19 6 10 1014.8 1014.7 0.0
20/08:30am 27.2 30.0 21.5 71 3.8 E 9 19 5 10 1014.8 1014.7 0.0
20/08:00am 26.0 28.5 21.0 74 3.3 SE 9 15 5 8 1015.0 1014.9 0.0
20/07:30am 25.4 27.7 21.3 78 2.7 SE 11 17 6 9 1014.6 1014.5 0.0
20/07:00am 24.6 28.6 22.1 86 1.7 SE 4 6 2 3 1014.1 1014.0 0.0
20/06:30am 24.7 28.2 21.8 84 1.9 SE 6 7 3 4 1013.8 1013.7 0.0
20/06:00am 25.0 28.9 22.5 86 1.7 ESE 6 9 3 5 1013.5 1013.4 0.0
20/05:30am 25.2 29.4 22.5 85 1.8 ESE 4 7 2 4 1013.1 1013.0 0.0
20/05:00am 26.0 30.1 22.9 83 2.1 SE 6 11 3 6 1013.0 1012.9 0.0
20/04:30am 26.2 30.5 23.3 84 2.0 ESE 6 13 3 7 1012.6 1012.5 0.0
20/04:00am 26.3 30.2 23.0 82 2.2 E 7 11 4 6 1012.4 1012.3 0.0
20/03:30am 26.2 30.2 23.1 83 2.1 E 7 15 4 8 1012.3 1012.2 0.0
20/03:00am 26.1 30.3 23.4 85 1.8 E 7 11 4 6 1012.2 1012.1 0.0
20/02:30am 26.1 29.9 23.4 85 1.8 ENE 9 17 5 9 1012.3 1012.2 0.0
20/02:00am 26.3 30.5 23.4 84 2.0 E 7 15 4 8 1012.7 1012.6 0.0
20/01:30am 26.5 30.1 23.0 81 2.4 E 9 20 5 11 1012.9 1012.8 0.0
20/01:00am 26.8 30.3 23.5 82 2.3 E 11 22 6 12 1013.1 1013.0 0.0
20/12:30am 26.7 30.1 23.4 82 2.3 ENE 11 19 6 10 1013.2 1013.1 0.0
20/12:00am 26.7 30.6 23.6 83 2.1 ENE 9 17 5 9 1013.6 1013.5 0.0
 
Date/Time
CST
Temp
°C
App
Temp
°C
Dew
Point
Rel
Hum
%
Delta-T
°C
Wind Press
QNH
hPa
Press
MSL
hPa
Rain
since 9 am
mm
Dir
 
Spd
km/h
Gust
km/h
Spd
kts
Gust
kts
19/11:30pm 26.7 30.7 23.8 84 2.0 ENE 9 15 5 8 1013.8 1013.7 0.0
19/11:00pm 26.8 31.3 23.9 84 2.0 ENE 7 15 4 8 1013.9 1013.8 0.0
19/10:30pm 26.9 31.3 23.8 83 2.1 ENE 7 17 4 9 1013.9 1013.8 0.0
19/10:00pm 26.8 30.8 23.7 83 2.1 NE 9 20 5 11 1013.5 1013.4 0.0
19/09:30pm 26.8 30.0 23.7 83 2.1 ENE 13 28 7 15 1013.1 1013.0 0.0
19/09:00pm 26.8 30.4 23.7 83 2.1 ENE 11 26 6 14 1012.7 1012.6 0.0
19/08:30pm 26.8 30.4 23.7 83 2.1 NE 11 26 6 14 1012.4 1012.3 0.0
19/08:00pm 26.9 30.8 23.6 82 2.3 NE 9 22 5 12 1011.9 1011.8 0.0
19/07:30pm 26.9 30.0 22.9 79 2.7 NE 11 19 6 10 1011.5 1011.4 0.0
19/07:00pm 27.1 30.3 23.1 79 2.7 NE 11 22 6 12 1011.3 1011.2 0.0
19/06:30pm 27.5 30.5 22.7 75 3.3 NE 11 22 6 12 1011.0 1010.9 0.0
19/06:00pm 28.0 30.6 22.0 70 4.0 NE 11 19 6 10 1010.8 1010.7 0.0
19/05:30pm 29.0 32.1 22.2 66 4.6 NE 9 17 5 9 1010.6 1010.5 0.0
19/05:00pm 29.0 30.3 21.7 64 4.9 NE 17 30 9 16 1010.6 1010.5 0.0
19/04:30pm 29.7 30.6 21.9 63 5.3 NE 20 35 11 19 1010.6 1010.5 0.0
19/04:00pm 30.3 31.7 21.9 60 5.7 ENE 17 30 9 16 1010.7 1010.6 0.0
19/03:30pm 30.4 30.8 20.9 57 6.3 NE 20 35 11 19 1010.8 1010.7 0.0
19/03:00pm 30.4 31.6 21.5 59 6.0 NE 17 32 9 17 1010.9 1010.8 0.0
19/02:30pm 31.4 32.8 21.8 56 6.5 NE 17 30 9 16 1011.3 1011.2 0.0
19/02:00pm 31.3 31.7 20.6 53 7.1 E 19 33 10 18 1011.4 1011.3 0.0
19/01:30pm 30.8 31.9 20.4 54 6.9 ESE 15 22 8 12 1011.8 1011.7 0.0
19/01:00pm 31.4 32.3 21.6 56 6.6 ENE 19 32 10 17 1012.3 1012.2 0.0
19/12:30pm 30.6 32.3 21.7 59 6.0 NE 15 20 8 11 1012.7 1012.6 0.0
19/12:00pm 31.1 32.0 21.6 57 6.4 E 19 30 10 16 1013.3 1013.2 0.0
19/11:30am 30.2 32.0 21.8 60 5.7 E 15 28 8 15 1013.7 1013.6 0.0
19/11:00am 30.1 30.6 20.9 57 6.1 ENE 19 30 10 16 1013.9 1013.8 0.0
19/10:30am 30.4 31.5 21.2 58 6.2 E 17 32 9 17 1014.1 1014.0 0.0
19/10:00am 30.3 31.7 21.1 58 6.1 ENE 15 30 8 16 1014.1 1014.0 0.0
19/09:30am 30.4 29.8 18.8 50 7.5 ENE 20 35 11 19 1014.3 1014.2 0.0
19/09:00am 29.9 30.1 20.2 56 6.4 E 19 33 10 18 1014.3 1014.2 0.0
19/08:30am 29.0 30.5 22.0 66 4.7 ENE 17 30 9 16 1014.1 1014.0 0.0
19/08:00am 28.8 31.0 21.8 66 4.7 ENE 13 32 7 17 1013.7 1013.6 0.0
19/07:30am 28.7 31.8 22.2 68 4.4 ENE 9 19 5 10 1013.4 1013.3 0.0
19/07:00am 27.2 30.9 23.2 79 2.7 ENE 9 15 5 8 1012.9 1012.8 0.0
19/06:30am 26.6 30.7 23.9 85 1.9 ENE 9 15 5 8 1012.5 1012.4 0.0
19/06:00am 26.4 30.9 23.9 86 1.7 ENE 7 13 4 7 1012.4 1012.3 0.0
19/05:30am 26.5 30.9 23.8 85 1.9 ENE 7 13 4 7 1012.1 1012.0 0.0
19/05:00am 26.6 30.7 23.3 82 2.3 E 7 19 4 10 1012.0 1011.9 0.0
19/04:30am 26.6 30.8 23.5 83 2.1 ENE 7 15 4 8 1011.8 1011.7 0.0
19/04:00am 26.8 30.5 23.9 84 2.0 ENE 11 20 6 11 1011.5 1011.4 0.0
19/03:30am 26.9 30.9 24.4 86 1.7 ENE 11 24 6 13 1011.5 1011.4 0.0
19/03:00am 26.9 30.8 24.2 85 1.9 E 11 19 6 10 1011.5 1011.4 0.0
19/02:30am 26.9 30.7 24.0 84 2.0 ENE 11 20 6 11 1011.7 1011.6 0.0
19/02:00am 26.7 31.1 24.4 87 1.6 ENE 9 19 5 10 1011.9 1011.8 0.0
19/01:30am 26.5 31.4 24.3 88 1.5 ENE 6 15 3 8 1012.1 1012.0 0.0
19/01:00am 26.5 31.1 24.2 87 1.6 ENE 7 15 4 8 1012.3 1012.2 0.0
19/12:30am 26.6 31.2 24.1 86 1.7 ENE 7 17 4 9 1012.6 1012.5 0.0
19/12:00am 26.5 30.8 24.2 87 1.6 ENE 9 17 5 9 1013.0 1012.9 0.0
 
Date/Time
CST
Temp
°C
App
Temp
°C
Dew
Point
Rel
Hum
%
Delta-T
°C
Wind Press
QNH
hPa
Press
MSL
hPa
Rain
since 9 am
mm
Dir
 
Spd
km/h
Gust
km/h
Spd
kts
Gust
kts
18/11:30pm 26.4 30.8 24.4 89 1.4 NE 9 15 5 8 1013.0 1012.9 0.0
18/11:00pm 25.7 30.6 24.3 92 1.0 ENE 6 11 3 6 1012.9 1012.8 0.0
18/10:30pm 25.4 30.5 24.0 92 1.0 NE 4 7 2 4 1012.8 1012.7 0.0
18/10:00pm 25.7 30.7 23.9 90 1.2 NE 4 7 2 4 1012.7 1012.6 0.0
18/09:30pm 25.8 30.4 23.8 89 1.4 NE 6 9 3 5 1012.5 1012.4 0.0
18/09:00pm 25.8 30.3 23.7 88 1.4 NNE 6 9 3 5 1012.1 1012.0 0.0
18/08:30pm 25.9 30.8 23.6 87 1.6 NE 4 11 2 6 1012.1 1012.0 0.0
18/08:00pm 26.2 30.9 23.3 84 2.0 NNE 4 6 2 3 1011.8 1011.7 0.0
18/07:30pm 26.6 30.9 23.3 82 2.3 NNE 6 9 3 5 1011.8 1011.7 0.0
18/07:00pm 26.9 31.0 23.2 80 2.5 NNE 7 11 4 6 1011.6 1011.5 0.0
18/06:30pm 27.6 31.1 22.8 75 3.3 NE 9 19 5 10 1011.4 1011.3 0.0
18/06:00pm 28.5 30.9 22.3 69 4.2 ENE 13 22 7 12 1011.0 1010.9 0.0
18/05:30pm 29.2 31.4 21.9 64 4.9 ENE 13 26 7 14 1010.6 1010.5 0.0
18/05:00pm 29.6 31.2 21.5 61 5.4 NE 15 24 8 13 1010.3 1010.2 0.0
18/04:30pm 30.2 31.7 21.3 59 6.0 NE 15 26 8 14 1010.2 1010.1 0.0
18/04:00pm 30.4 31.9 21.2 58 6.2 ENE 15 26 8 14 1010.3 1010.2 0.0
18/03:30pm 31.2 32.7 20.5 53 7.1 ENE 13 24 7 13 1010.4 1010.3 0.0
18/03:00pm 31.8 33.0 20.7 51 7.4 NE 15 26 8 14 1010.7 1010.6 0.0
18/02:30pm 31.5 32.2 20.4 51 7.4 NE 17 32 9 17 1011.0 1010.9 0.0
18/02:00pm 31.4 32.2 20.7 53 7.1 NE 17 28 9 15 1011.5 1011.4 0.0
18/01:30pm 32.4 33.5 19.6 46 8.4 ENE 13 24 7 13 1011.8 1011.7 0.0
18/01:00pm 32.8 33.2 18.2 42 9.4 E 13 30 7 16 1012.0 1011.9 0.0
18/12:30pm 32.0 32.7 19.6 47 8.2 ENE 15 24 8 13 1012.5 1012.4 0.0
18/12:00pm 32.3 33.2 19.2 46 8.6 E 13 24 7 13 1013.0 1012.9 0.0
18/11:30am 31.5 32.3 19.8 49 7.7 E 15 26 8 14 1013.4 1013.3 0.0
18/11:00am 31.5 32.8 19.2 48 8.0 E 11 20 6 11 1013.7 1013.6 0.0
18/10:30am 30.8 32.0 19.8 52 7.2 E 13 22 7 12 1013.9 1013.8 0.0
18/10:00am 30.1 31.9 20.4 56 6.4 E 11 22 6 12 1014.0 1013.9 0.0
18/09:30am 30.2 31.3 19.6 53 6.9 E 13 20 7 11 1014.1 1014.0 0.0
18/09:00am 29.3 32.9 22.3 66 4.7 E 7 13 4 7 1014.1 1014.0 0.0
18/08:30am 27.1 30.9 21.6 72 3.7 SE 4 6 2 3 1014.1 1014.0 0.0
18/08:00am 25.3 28.9 21.2 78 2.7 SE 4 9 2 5 1014.2 1014.1 0.0
18/07:30am 23.3 27.7 21.4 89 1.3 CALM 0 0 0 0 1013.8 1013.7 0.0
18/07:00am 20.3 23.6 19.1 93 0.8 CALM 0 2 0 1 1013.4 1013.3 0.0
18/06:30am 18.2 20.5 16.7 91 0.9 CALM 0 0 0 0 1013.0 1012.9 0.0
18/06:00am 18.3 20.5 16.5 89 1.1 CALM 0 0 0 0 1012.6 1012.5 0.0
18/05:30am 18.9 21.4 17.2 90 1.0 CALM 0 0 0 0 1012.3 1012.2 0.0
18/05:00am 19.2 21.4 16.6 85 1.6 CALM 0 0 0 0 1011.9 1011.8 0.0
18/04:30am 19.5 21.9 17.1 86 1.5 CALM 0 0 0 0 1011.7 1011.6 0.0
18/04:00am 19.8 22.4 17.4 86 1.5 CALM 0 0 0 0 1011.5 1011.4 0.0
18/03:30am 19.4 21.9 17.2 87 1.3 CALM 0 0 0 0 1011.6 1011.5 0.0
18/03:00am 19.1 21.5 16.9 87 1.3 CALM 0 0 0 0 1011.7 1011.6 0.0
18/02:30am 19.2 21.5 16.8 86 1.4 CALM 0 0 0 0 1012.0 1011.9 0.0
18/02:00am 19.1 21.5 17.1 88 1.2 CALM 0 0 0 0 1012.1 1012.0 0.0
18/01:30am 19.2 21.7 17.2 88 1.2 CALM 0 0 0 0 1012.5 1012.4 0.0
18/01:00am 19.3 22.0 17.8 91 0.9 CALM 0 0 0 0 1012.8 1012.7 0.0
18/12:30am 19.6 22.5 18.1 91 0.9 CALM 0 0 0 0 1012.8 1012.7 0.0
18/12:00am 19.8 22.7 18.1 90 1.1 CALM 0 0 0 0 1012.9 1012.8 0.0
 
Date/Time
CST
Temp
°C
App
Temp
°C
Dew
Point
Rel
Hum
%
Delta-T
°C
Wind Press
QNH
hPa
Press
MSL
hPa
Rain
since 9 am
mm
Dir
 
Spd
km/h
Gust
km/h
Spd
kts
Gust
kts
17/11:30pm 20.0 22.9 18.1 89 1.2 CALM 0 0 0 0 1012.9 1012.8 0.0
17/11:00pm 20.4 23.0 17.4 83 1.8 CALM 0 0 0 0 1013.1 1013.0 0.0
17/10:30pm 20.6 23.1 17.2 81 2.1 CALM 0 0 0 0 1013.2 1013.1 0.0
17/10:00pm 21.1 24.0 18.1 83 1.9 CALM 0 0 0 0 1013.1 1013.0 0.0
17/09:30pm 21.1 24.0 18.1 83 1.9 CALM 0 0 0 0 1012.7 1012.6 0.0
17/09:00pm 21.5 23.9 16.9 75 2.8 CALM 0 0 0 0 1012.5 1012.4 0.0

Other Formats:

Comma delimited format used in spreadsheet applications
http://www.bom.gov.au/fwo/IDD60801/IDD60801.94109.axf

JavaScript Object Notation format (JSON) in row-major order
http://www.bom.gov.au/fwo/IDD60801/IDD60801.94109.json